VFR

Current Weather at KSUZ

CLEAR SKIES
Flight Category: VFR | METAR Readout: KSUZ 122355Z AUTO 10007KT 10SM CLR 31/20 A3003 RMK A01
Wind: 100° at kts Visibility: 10 Miles Altimeter: 30.03 inHg Pressure: 1017 hPA Humidity: 52% Temperature: 88°F (31)°C Dewpoint: 88°F (31)°C